sensor_id;sensor_type;location;lat;lon;timestamp;temperature;humidity
62809;DHT22;48848;39.002;-94.584;2022-08-11T00:00:11;24.20;39.70
62809;DHT22;48848;39.002;-94.584;2022-08-11T00:02:48;24.10;39.80
62809;DHT22;48848;39.002;-94.584;2022-08-11T00:05:18;24.10;39.70
62809;DHT22;48848;39.002;-94.584;2022-08-11T00:07:55;24.10;39.50
62809;DHT22;48848;39.002;-94.584;2022-08-11T00:10:24;24.10;39.70
62809;DHT22;48848;39.002;-94.584;2022-08-11T00:13:03;24.00;39.60
62809;DHT22;48848;39.002;-94.584;2022-08-11T00:15:44;24.10;39.70
62809;DHT22;48848;39.002;-94.584;2022-08-11T00:18:12;24.10;39.70
62809;DHT22;48848;39.002;-94.584;2022-08-11T00:20:41;24.10;39.60
62809;DHT22;48848;39.002;-94.584;2022-08-11T00:23:14;24.10;39.60
62809;DHT22;48848;39.002;-94.584;2022-08-11T00:25:46;24.00;39.60
62809;DHT22;48848;39.002;-94.584;2022-08-11T00:28:30;24.00;39.90
62809;DHT22;48848;39.002;-94.584;2022-08-11T00:31:07;24.00;39.80
62809;DHT22;48848;39.002;-94.584;2022-08-11T00:33:38;23.90;39.80
62809;DHT22;48848;39.002;-94.584;2022-08-11T00:36:05;23.90;39.80
62809;DHT22;48848;39.002;-94.584;2022-08-11T00:38:39;23.90;40.00
62809;DHT22;48848;39.002;-94.584;2022-08-11T00:47:09;23.90;40.00
62809;DHT22;48848;39.002;-94.584;2022-08-11T00:49:54;23.80;40.00
62809;DHT22;48848;39.002;-94.584;2022-08-11T00:55:26;23.80;40.00
62809;DHT22;48848;39.002;-94.584;2022-08-11T01:12:29;23.70;41.50
62809;DHT22;48848;39.002;-94.584;2022-08-11T01:15:25;23.80;41.50
62809;DHT22;48848;39.002;-94.584;2022-08-11T01:38:26;23.80;41.50
62809;DHT22;48848;39.002;-94.584;2022-08-11T01:53:56;23.80;42.10
62809;DHT22;48848;39.002;-94.584;2022-08-11T02:04:24;23.70;41.10
62809;DHT22;48848;39.002;-94.584;2022-08-11T02:07:00;23.70;40.80
62809;DHT22;48848;39.002;-94.584;2022-08-11T02:12:56;23.70;40.50
62809;DHT22;48848;39.002;-94.584;2022-08-11T02:16:01;23.70;40.50
62809;DHT22;48848;39.002;-94.584;2022-08-11T02:18:35;23.70;40.90
62809;DHT22;48848;39.002;-94.584;2022-08-11T02:21:30;23.70;40.30
62809;DHT22;48848;39.002;-94.584;2022-08-11T02:24:40;23.60;40.00
62809;DHT22;48848;39.002;-94.584;2022-08-11T02:27:22;23.50;39.70
62809;DHT22;48848;39.002;-94.584;2022-08-11T02:35:49;23.30;39.40
62809;DHT22;48848;39.002;-94.584;2022-08-11T02:41:41;23.30;39.30
62809;DHT22;48848;39.002;-94.584;2022-08-11T02:50:48;23.10;39.00
62809;DHT22;48848;39.002;-94.584;2022-08-11T02:53:25;23.10;39.00
62809;DHT22;48848;39.002;-94.584;2022-08-11T02:56:36;23.10;39.10
62809;DHT22;48848;39.002;-94.584;2022-08-11T03:02:41;23.00;38.90
62809;DHT22;48848;39.002;-94.584;2022-08-11T03:10:40;22.90;38.90
62809;DHT22;48848;39.002;-94.584;2022-08-11T03:13:33;22.90;38.80
62809;DHT22;48848;39.002;-94.584;2022-08-11T03:16:42;22.80;38.70
62809;DHT22;48848;39.002;-94.584;2022-08-11T03:24:39;22.80;38.70
62809;DHT22;48848;39.002;-94.584;2022-08-11T03:32:37;22.70;38.70
62809;DHT22;48848;39.002;-94.584;2022-08-11T03:35:08;22.70;38.80
62809;DHT22;48848;39.002;-94.584;2022-08-11T03:37:59;22.60;38.90
62809;DHT22;48848;39.002;-94.584;2022-08-11T03:44:05;22.60;38.90
62809;DHT22;48848;39.002;-94.584;2022-08-11T03:53:09;22.40;39.00
62809;DHT22;48848;39.002;-94.584;2022-08-11T03:55:18;22.40;39.00
62809;DHT22;48848;39.002;-94.584;2022-08-11T04:34:34;21.70;39.20
62809;DHT22;48848;39.002;-94.584;2022-08-11T04:51:31;21.50;39.40
62809;DHT22;48848;39.002;-94.584;2022-08-11T04:57:46;21.50;39.30
62809;DHT22;48848;39.002;-94.584;2022-08-11T05:01:17;21.50;39.50
62809;DHT22;48848;39.002;-94.584;2022-08-11T05:04:36;21.40;39.30
62809;DHT22;48848;39.002;-94.584;2022-08-11T05:13:09;21.30;39.40
62809;DHT22;48848;39.002;-94.584;2022-08-11T05:15:57;21.30;39.40
62809;DHT22;48848;39.002;-94.584;2022-08-11T05:18:52;21.20;39.50
62809;DHT22;48848;39.002;-94.584;2022-08-11T05:21:40;21.20;39.80
62809;DHT22;48848;39.002;-94.584;2022-08-11T05:27:19;21.70;40.00
62809;DHT22;48848;39.002;-94.584;2022-08-11T05:30:07;21.90;40.00
62809;DHT22;48848;39.002;-94.584;2022-08-11T05:33:04;22.00;39.90
62809;DHT22;48848;39.002;-94.584;2022-08-11T05:35:54;22.10;40.00
62809;DHT22;48848;39.002;-94.584;2022-08-11T05:38:24;22.20;39.90
62809;DHT22;48848;39.002;-94.584;2022-08-11T05:41:13;22.40;39.80
62809;DHT22;48848;39.002;-94.584;2022-08-11T05:44:00;22.40;39.90
62809;DHT22;48848;39.002;-94.584;2022-08-11T05:46:46;22.50;39.90
62809;DHT22;48848;39.002;-94.584;2022-08-11T05:49:32;22.60;40.00
62809;DHT22;48848;39.002;-94.584;2022-08-11T05:52:23;22.70;40.30
62809;DHT22;48848;39.002;-94.584;2022-08-11T05:55:09;22.70;40.70
62809;DHT22;48848;39.002;-94.584;2022-08-11T05:58:05;22.80;40.60
62809;DHT22;48848;39.002;-94.584;2022-08-11T06:00:44;22.80;40.40
62809;DHT22;48848;39.002;-94.584;2022-08-11T06:03:19;22.90;40.70
62809;DHT22;48848;39.002;-94.584;2022-08-11T06:05:47;22.90;40.90
62809;DHT22;48848;39.002;-94.584;2022-08-11T06:08:14;23.00;41.00
62809;DHT22;48848;39.002;-94.584;2022-08-11T06:10:43;23.00;41.20
62809;DHT22;48848;39.002;-94.584;2022-08-11T06:13:14;23.10;40.90
62809;DHT22;48848;39.002;-94.584;2022-08-11T06:15:48;23.10;41.40
62809;DHT22;48848;39.002;-94.584;2022-08-11T06:18:17;23.10;41.60
62809;DHT22;48848;39.002;-94.584;2022-08-11T06:20:51;23.10;41.50
62809;DHT22;48848;39.002;-94.584;2022-08-11T06:23:21;23.20;41.60
62809;DHT22;48848;39.002;-94.584;2022-08-11T06:25:52;23.20;41.20
62809;DHT22;48848;39.002;-94.584;2022-08-11T06:28:30;23.30;41.50
62809;DHT22;48848;39.002;-94.584;2022-08-11T06:30:58;23.30;41.50
62809;DHT22;48848;39.002;-94.584;2022-08-11T06:33:38;23.30;41.80
62809;DHT22;48848;39.002;-94.584;2022-08-11T06:42:02;23.40;41.70
62809;DHT22;48848;39.002;-94.584;2022-08-11T06:44:38;23.50;42.30
62809;DHT22;48848;39.002;-94.584;2022-08-11T06:47:08;23.40;41.00
62809;DHT22;48848;39.002;-94.584;2022-08-11T06:49:38;23.20;40.20
62809;DHT22;48848;39.002;-94.584;2022-08-11T06:52:34;23.00;40.20
62809;DHT22;48848;39.002;-94.584;2022-08-11T06:55:25;22.80;40.20
62809;DHT22;48848;39.002;-94.584;2022-08-11T06:58:15;22.70;40.00
62809;DHT22;48848;39.002;-94.584;2022-08-11T07:01:05;22.50;42.10
62809;DHT22;48848;39.002;-94.584;2022-08-11T07:03:37;22.50;44.60
62809;DHT22;48848;39.002;-94.584;2022-08-11T07:06:21;22.60;45.10
62809;DHT22;48848;39.002;-94.584;2022-08-11T07:09:13;22.80;44.10
62809;DHT22;48848;39.002;-94.584;2022-08-11T07:15:02;23.10;43.30
62809;DHT22;48848;39.002;-94.584;2022-08-11T07:17:52;23.10;43.40
62809;DHT22;48848;39.002;-94.584;2022-08-11T07:20:40;23.20;43.50
62809;DHT22;48848;39.002;-94.584;2022-08-11T07:23:28;23.30;44.00
62809;DHT22;48848;39.002;-94.584;2022-08-11T07:26:16;23.30;44.00
62809;DHT22;48848;39.002;-94.584;2022-08-11T07:29:04;23.30;43.70
62809;DHT22;48848;39.002;-94.584;2022-08-11T07:31:49;23.30;43.80
62809;DHT22;48848;39.002;-94.584;2022-08-11T07:34:34;23.40;43.50
62809;DHT22;48848;39.002;-94.584;2022-08-11T07:37:09;23.40;43.80
62809;DHT22;48848;39.002;-94.584;2022-08-11T07:39:38;23.40;44.00
62809;DHT22;48848;39.002;-94.584;2022-08-11T07:42:07;23.40;43.80
62809;DHT22;48848;39.002;-94.584;2022-08-11T07:44:35;23.50;43.60
62809;DHT22;48848;39.002;-94.584;2022-08-11T07:47:25;23.40;43.90
62809;DHT22;48848;39.002;-94.584;2022-08-11T07:50:11;23.50;44.00
62809;DHT22;48848;39.002;-94.584;2022-08-11T07:53:00;23.50;44.10
62809;DHT22;48848;39.002;-94.584;2022-08-11T07:55:27;23.50;44.30
62809;DHT22;48848;39.002;-94.584;2022-08-11T07:57:57;23.60;44.20
62809;DHT22;48848;39.002;-94.584;2022-08-11T08:00:48;23.50;44.40
62809;DHT22;48848;39.002;-94.584;2022-08-11T08:03:33;23.60;44.50
62809;DHT22;48848;39.002;-94.584;2022-08-11T08:06:18;23.60;44.50
62809;DHT22;48848;39.002;-94.584;2022-08-11T08:09:04;23.60;44.80
62809;DHT22;48848;39.002;-94.584;2022-08-11T08:11:50;23.70;44.90
62809;DHT22;48848;39.002;-94.584;2022-08-11T08:14:35;23.70;44.70
62809;DHT22;48848;39.002;-94.584;2022-08-11T08:17:21;23.70;44.80
62809;DHT22;48848;39.002;-94.584;2022-08-11T08:20:10;23.70;44.90
62809;DHT22;48848;39.002;-94.584;2022-08-11T08:22:37;23.70;44.80
62809;DHT22;48848;39.002;-94.584;2022-08-11T08:25:05;23.70;44.90
62809;DHT22;48848;39.002;-94.584;2022-08-11T08:27:33;23.70;45.10
62809;DHT22;48848;39.002;-94.584;2022-08-11T08:30:02;23.80;45.30
62809;DHT22;48848;39.002;-94.584;2022-08-11T08:32:48;23.80;45.20
62809;DHT22;48848;39.002;-94.584;2022-08-11T08:35:16;23.80;45.20
62809;DHT22;48848;39.002;-94.584;2022-08-11T08:37:42;23.80;45.20
62809;DHT22;48848;39.002;-94.584;2022-08-11T08:40:09;23.80;45.00
62809;DHT22;48848;39.002;-94.584;2022-08-11T08:42:44;23.80;45.20
62809;DHT22;48848;39.002;-94.584;2022-08-11T08:45:13;23.80;44.50
62809;DHT22;48848;39.002;-94.584;2022-08-11T08:47:59;23.70;42.40
62809;DHT22;48848;39.002;-94.584;2022-08-11T08:50:29;23.40;41.70
62809;DHT22;48848;39.002;-94.584;2022-08-11T08:53:25;23.20;41.60
62809;DHT22;48848;39.002;-94.584;2022-08-11T08:55:55;23.00;41.30
62809;DHT22;48848;39.002;-94.584;2022-08-11T08:58:23;22.80;41.00
62809;DHT22;48848;39.002;-94.584;2022-08-11T09:00:53;22.80;43.10
62809;DHT22;48848;39.002;-94.584;2022-08-11T09:03:20;22.70;45.30
62809;DHT22;48848;39.002;-94.584;2022-08-11T09:05:47;22.80;45.90
62809;DHT22;48848;39.002;-94.584;2022-08-11T09:08:17;22.90;45.00
62809;DHT22;48848;39.002;-94.584;2022-08-11T09:10:48;23.10;44.70
62809;DHT22;48848;39.002;-94.584;2022-08-11T09:13:34;23.10;44.50
62809;DHT22;48848;39.002;-94.584;2022-08-11T09:16:04;23.20;45.20
62809;DHT22;48848;39.002;-94.584;2022-08-11T09:18:32;23.30;45.20
62809;DHT22;48848;39.002;-94.584;2022-08-11T09:21:01;23.30;45.50
62809;DHT22;48848;39.002;-94.584;2022-08-11T09:23:28;23.30;45.10
62809;DHT22;48848;39.002;-94.584;2022-08-11T09:26:13;23.30;45.30
62809;DHT22;48848;39.002;-94.584;2022-08-11T09:29:00;23.40;45.50
62809;DHT22;48848;39.002;-94.584;2022-08-11T09:31:29;23.30;45.30
62809;DHT22;48848;39.002;-94.584;2022-08-11T09:33:58;23.40;45.60
62809;DHT22;48848;39.002;-94.584;2022-08-11T09:36:24;23.40;45.30
62809;DHT22;48848;39.002;-94.584;2022-08-11T09:39:12;23.40;45.80
62809;DHT22;48848;39.002;-94.584;2022-08-11T09:42:02;23.40;45.50
62809;DHT22;48848;39.002;-94.584;2022-08-11T09:44:30;23.50;45.70
62809;DHT22;48848;39.002;-94.584;2022-08-11T09:47:27;23.50;45.80
62809;DHT22;48848;39.002;-94.584;2022-08-11T09:49:59;23.50;45.60
62809;DHT22;48848;39.002;-94.584;2022-08-11T09:52:28;23.50;45.90
62809;DHT22;48848;39.002;-94.584;2022-08-11T09:54:55;23.50;45.90
62809;DHT22;48848;39.002;-94.584;2022-08-11T09:57:23;23.50;45.90
62809;DHT22;48848;39.002;-94.584;2022-08-11T10:00:10;23.50;46.00
62809;DHT22;48848;39.002;-94.584;2022-08-11T10:02:46;23.50;46.00
62809;DHT22;48848;39.002;-94.584;2022-08-11T10:05:17;23.50;46.00
62809;DHT22;48848;39.002;-94.584;2022-08-11T10:08:03;23.50;46.00
62809;DHT22;48848;39.002;-94.584;2022-08-11T10:10:35;23.50;45.70
62809;DHT22;48848;39.002;-94.584;2022-08-11T10:13:10;23.60;45.80
62809;DHT22;48848;39.002;-94.584;2022-08-11T10:15:41;23.60;45.90
62809;DHT22;48848;39.002;-94.584;2022-08-11T10:18:14;23.60;45.80
62809;DHT22;48848;39.002;-94.584;2022-08-11T10:21:07;23.60;46.00
62809;DHT22;48848;39.002;-94.584;2022-08-11T10:23:35;23.60;45.90
62809;DHT22;48848;39.002;-94.584;2022-08-11T10:26:22;23.60;45.90
62809;DHT22;48848;39.002;-94.584;2022-08-11T10:29:09;23.60;45.90
62809;DHT22;48848;39.002;-94.584;2022-08-11T10:31:56;23.60;46.00
62809;DHT22;48848;39.002;-94.584;2022-08-11T10:34:43;23.60;46.10
62809;DHT22;48848;39.002;-94.584;2022-08-11T10:37:10;23.60;46.00
62809;DHT22;48848;39.002;-94.584;2022-08-11T10:39:38;23.60;45.70
62809;DHT22;48848;39.002;-94.584;2022-08-11T10:42:05;23.60;45.80
62809;DHT22;48848;39.002;-94.584;2022-08-11T10:44:53;23.60;45.90
62809;DHT22;48848;39.002;-94.584;2022-08-11T10:47:21;23.60;45.70
62809;DHT22;48848;39.002;-94.584;2022-08-11T10:50:17;23.60;45.90
62809;DHT22;48848;39.002;-94.584;2022-08-11T10:53:03;23.60;45.80
62809;DHT22;48848;39.002;-94.584;2022-08-11T10:55:48;23.60;45.90
62809;DHT22;48848;39.002;-94.584;2022-08-11T10:58:33;23.60;45.90
62809;DHT22;48848;39.002;-94.584;2022-08-11T11:01:38;23.60;46.20
62809;DHT22;48848;39.002;-94.584;2022-08-11T11:04:11;23.70;46.20
62809;DHT22;48848;39.002;-94.584;2022-08-11T11:06:50;23.60;46.10
62809;DHT22;48848;39.002;-94.584;2022-08-11T11:09:28;23.60;45.90
62809;DHT22;48848;39.002;-94.584;2022-08-11T11:14:53;23.60;45.80
62809;DHT22;48848;39.002;-94.584;2022-08-11T11:18:14;23.60;45.50
62809;DHT22;48848;39.002;-94.584;2022-08-11T11:23:26;23.70;45.90
62809;DHT22;48848;39.002;-94.584;2022-08-11T11:37:34;23.70;45.90
62809;DHT22;48848;39.002;-94.584;2022-08-11T11:40:08;23.70;45.90
62809;DHT22;48848;39.002;-94.584;2022-08-11T11:42:36;23.60;45.80
62809;DHT22;48848;39.002;-94.584;2022-08-11T11:45:05;23.60;45.80
62809;DHT22;48848;39.002;-94.584;2022-08-11T11:47:32;23.60;45.90
62809;DHT22;48848;39.002;-94.584;2022-08-11T11:49:59;23.60;45.60
62809;DHT22;48848;39.002;-94.584;2022-08-11T11:52:25;23.60;45.50
62809;DHT22;48848;39.002;-94.584;2022-08-11T11:54:55;23.60;46.00
62809;DHT22;48848;39.002;-94.584;2022-08-11T11:57:23;23.60;45.60
62809;DHT22;48848;39.002;-94.584;2022-08-11T12:00:09;23.60;45.70
62809;DHT22;48848;39.002;-94.584;2022-08-11T12:02:58;23.60;45.80
62809;DHT22;48848;39.002;-94.584;2022-08-11T12:05:26;23.60;45.80
62809;DHT22;48848;39.002;-94.584;2022-08-11T12:07:54;23.60;46.40
62809;DHT22;48848;39.002;-94.584;2022-08-11T12:10:45;23.60;45.90
62809;DHT22;48848;39.002;-94.584;2022-08-11T12:13:12;23.60;46.20
62809;DHT22;48848;39.002;-94.584;2022-08-11T12:15:57;23.60;45.80
62809;DHT22;48848;39.002;-94.584;2022-08-11T12:18:37;23.50;45.70
62809;DHT22;48848;39.002;-94.584;2022-08-11T12:21:06;23.50;46.00
62809;DHT22;48848;39.002;-94.584;2022-08-11T12:23:34;23.50;45.80
62809;DHT22;48848;39.002;-94.584;2022-08-11T12:26:20;23.60;45.90
62809;DHT22;48848;39.002;-94.584;2022-08-11T12:29:08;23.50;45.80
62809;DHT22;48848;39.002;-94.584;2022-08-11T12:31:36;23.50;45.90
62809;DHT22;48848;39.002;-94.584;2022-08-11T12:34:11;23.50;45.90
62809;DHT22;48848;39.002;-94.584;2022-08-11T12:36:43;23.50;45.90
62809;DHT22;48848;39.002;-94.584;2022-08-11T12:39:12;23.50;45.90
62809;DHT22;48848;39.002;-94.584;2022-08-11T12:41:44;23.50;46.30
62809;DHT22;48848;39.002;-94.584;2022-08-11T12:44:30;23.50;45.90
62809;DHT22;48848;39.002;-94.584;2022-08-11T12:47:18;23.50;45.90
62809;DHT22;48848;39.002;-94.584;2022-08-11T12:49:47;23.50;46.00
62809;DHT22;48848;39.002;-94.584;2022-08-11T12:52:44;23.50;45.90
62809;DHT22;48848;39.002;-94.584;2022-08-11T12:55:21;23.50;45.90
62809;DHT22;48848;39.002;-94.584;2022-08-11T12:58:09;23.50;45.90
62809;DHT22;48848;39.002;-94.584;2022-08-11T13:00:44;23.50;45.90
62809;DHT22;48848;39.002;-94.584;2022-08-11T13:03:31;23.50;45.90
62809;DHT22;48848;39.002;-94.584;2022-08-11T13:06:18;23.50;46.00
62809;DHT22;48848;39.002;-94.584;2022-08-11T13:08:45;23.50;45.90
62809;DHT22;48848;39.002;-94.584;2022-08-11T13:11:15;23.50;45.90
62809;DHT22;48848;39.002;-94.584;2022-08-11T13:14:01;23.50;45.90
62809;DHT22;48848;39.002;-94.584;2022-08-11T13:16:30;23.50;45.90
62809;DHT22;48848;39.002;-94.584;2022-08-11T13:18:58;23.50;45.80
62809;DHT22;48848;39.002;-94.584;2022-08-11T13:21:26;23.50;45.90
62809;DHT22;48848;39.002;-94.584;2022-08-11T13:23:54;23.50;45.80
62809;DHT22;48848;39.002;-94.584;2022-08-11T13:26:24;23.50;45.90
62809;DHT22;48848;39.002;-94.584;2022-08-11T13:28:51;23.50;45.90
62809;DHT22;48848;39.002;-94.584;2022-08-11T13:31:18;23.50;45.90
62809;DHT22;48848;39.002;-94.584;2022-08-11T13:33:47;23.50;45.90
62809;DHT22;48848;39.002;-94.584;2022-08-11T13:36:21;23.50;45.90
62809;DHT22;48848;39.002;-94.584;2022-08-11T13:38:53;23.50;45.90
62809;DHT22;48848;39.002;-94.584;2022-08-11T13:41:20;23.50;46.00
62809;DHT22;48848;39.002;-94.584;2022-08-11T13:44:09;23.50;46.00
62809;DHT22;48848;39.002;-94.584;2022-08-11T13:46:38;23.50;46.10
62809;DHT22;48848;39.002;-94.584;2022-08-11T13:49:07;23.50;46.10
62809;DHT22;48848;39.002;-94.584;2022-08-11T13:51:39;23.50;46.80
62809;DHT22;48848;39.002;-94.584;2022-08-11T13:54:08;23.50;47.40
62809;DHT22;48848;39.002;-94.584;2022-08-11T13:56:37;23.50;47.60
62809;DHT22;48848;39.002;-94.584;2022-08-11T13:59:06;23.60;47.70
62809;DHT22;48848;39.002;-94.584;2022-08-11T14:01:38;23.50;47.70
62809;DHT22;48848;39.002;-94.584;2022-08-11T14:04:11;23.60;47.70
62809;DHT22;48848;39.002;-94.584;2022-08-11T14:06:44;23.60;47.60
62809;DHT22;48848;39.002;-94.584;2022-08-11T14:09:13;23.60;48.00
62809;DHT22;48848;39.002;-94.584;2022-08-11T14:11:42;23.70;47.80
62809;DHT22;48848;39.002;-94.584;2022-08-11T14:14:32;23.70;47.80
62809;DHT22;48848;39.002;-94.584;2022-08-11T14:17:05;23.70;47.70
62809;DHT22;48848;39.002;-94.584;2022-08-11T14:19:39;23.70;47.80
62809;DHT22;48848;39.002;-94.584;2022-08-11T14:22:06;23.70;47.80
62809;DHT22;48848;39.002;-94.584;2022-08-11T14:24:41;23.70;47.70
62809;DHT22;48848;39.002;-94.584;2022-08-11T14:27:12;23.70;47.70
62809;DHT22;48848;39.002;-94.584;2022-08-11T14:29:40;23.70;47.50
62809;DHT22;48848;39.002;-94.584;2022-08-11T14:32:09;23.70;47.50
62809;DHT22;48848;39.002;-94.584;2022-08-11T14:34:40;23.70;47.40
62809;DHT22;48848;39.002;-94.584;2022-08-11T14:37:13;23.70;47.60
62809;DHT22;48848;39.002;-94.584;2022-08-11T14:42:14;23.70;47.70
62809;DHT22;48848;39.002;-94.584;2022-08-11T14:45:22;23.70;47.80
62809;DHT22;48848;39.002;-94.584;2022-08-11T14:48:08;23.70;48.30
62809;DHT22;48848;39.002;-94.584;2022-08-11T14:50:35;23.70;47.90
62809;DHT22;48848;39.002;-94.584;2022-08-11T14:53:04;23.80;47.90
62809;DHT22;48848;39.002;-94.584;2022-08-11T14:55:38;23.70;48.00
62809;DHT22;48848;39.002;-94.584;2022-08-11T14:58:25;23.80;48.00
62809;DHT22;48848;39.002;-94.584;2022-08-11T15:00:56;23.80;47.90
62809;DHT22;48848;39.002;-94.584;2022-08-11T15:03:24;23.80;48.00
62809;DHT22;48848;39.002;-94.584;2022-08-11T15:05:52;23.80;48.20
62809;DHT22;48848;39.002;-94.584;2022-08-11T15:08:19;23.90;47.70
62809;DHT22;48848;39.002;-94.584;2022-08-11T15:11:07;23.90;47.60
62809;DHT22;48848;39.002;-94.584;2022-08-11T15:13:55;23.90;47.50
62809;DHT22;48848;39.002;-94.584;2022-08-11T15:16:23;24.00;47.20
62809;DHT22;48848;39.002;-94.584;2022-08-11T15:19:16;24.00;47.20
62809;DHT22;48848;39.002;-94.584;2022-08-11T15:21:49;24.00;47.30
62809;DHT22;48848;39.002;-94.584;2022-08-11T15:24:34;24.00;47.30
62809;DHT22;48848;39.002;-94.584;2022-08-11T15:27:04;24.00;47.10
62809;DHT22;48848;39.002;-94.584;2022-08-11T15:29:52;24.00;47.00
62809;DHT22;48848;39.002;-94.584;2022-08-11T15:32:40;24.10;47.40
62809;DHT22;48848;39.002;-94.584;2022-08-11T15:35:26;24.10;47.10
62809;DHT22;48848;39.002;-94.584;2022-08-11T15:38:13;24.10;47.10
62809;DHT22;48848;39.002;-94.584;2022-08-11T15:40:41;24.00;47.00
62809;DHT22;48848;39.002;-94.584;2022-08-11T15:43:48;24.10;48.10
62809;DHT22;48848;39.002;-94.584;2022-08-11T15:46:41;24.00;47.30
62809;DHT22;48848;39.002;-94.584;2022-08-11T15:49:12;24.10;47.30
62809;DHT22;48848;39.002;-94.584;2022-08-11T15:51:47;24.10;47.20
62809;DHT22;48848;39.002;-94.584;2022-08-11T15:54:17;24.10;48.70
62809;DHT22;48848;39.002;-94.584;2022-08-11T15:56:47;24.10;48.10
62809;DHT22;48848;39.002;-94.584;2022-08-11T15:59:16;24.10;48.00
62809;DHT22;48848;39.002;-94.584;2022-08-11T16:02:03;24.10;47.70
62809;DHT22;48848;39.002;-94.584;2022-08-11T16:04:48;24.20;47.50
62809;DHT22;48848;39.002;-94.584;2022-08-11T16:07:18;24.20;47.80
62809;DHT22;48848;39.002;-94.584;2022-08-11T16:10:10;24.20;47.60
62809;DHT22;48848;39.002;-94.584;2022-08-11T16:12:43;24.20;47.60
62809;DHT22;48848;39.002;-94.584;2022-08-11T16:15:34;24.30;47.80
62809;DHT22;48848;39.002;-94.584;2022-08-11T16:18:22;24.40;49.90
62809;DHT22;48848;39.002;-94.584;2022-08-11T16:20:53;24.40;47.80
62809;DHT22;48848;39.002;-94.584;2022-08-11T16:23:23;24.40;47.70
62809;DHT22;48848;39.002;-94.584;2022-08-11T16:25:54;24.40;47.30
62809;DHT22;48848;39.002;-94.584;2022-08-11T16:28:22;24.40;48.30
62809;DHT22;48848;39.002;-94.584;2022-08-11T16:30:50;24.50;47.40
62809;DHT22;48848;39.002;-94.584;2022-08-11T16:33:19;24.50;47.40
62809;DHT22;48848;39.002;-94.584;2022-08-11T16:35:48;24.50;47.10
62809;DHT22;48848;39.002;-94.584;2022-08-11T16:38:35;24.50;47.20
62809;DHT22;48848;39.002;-94.584;2022-08-11T16:41:14;24.60;47.60
62809;DHT22;48848;39.002;-94.584;2022-08-11T16:44:02;24.60;47.80
62809;DHT22;48848;39.002;-94.584;2022-08-11T16:46:47;24.60;47.30
62809;DHT22;48848;39.002;-94.584;2022-08-11T16:49:35;24.60;47.90
62809;DHT22;48848;39.002;-94.584;2022-08-11T16:52:03;24.60;47.50
62809;DHT22;48848;39.002;-94.584;2022-08-11T16:54:32;24.80;47.70
62809;DHT22;48848;39.002;-94.584;2022-08-11T16:57:04;24.70;47.70
62809;DHT22;48848;39.002;-94.584;2022-08-11T17:00:12;24.70;47.90
62809;DHT22;48848;39.002;-94.584;2022-08-11T17:02:49;24.80;47.80
62809;DHT22;48848;39.002;-94.584;2022-08-11T17:05:35;24.80;47.70
62809;DHT22;48848;39.002;-94.584;2022-08-11T17:08:49;24.90;47.70
62809;DHT22;48848;39.002;-94.584;2022-08-11T17:11:38;24.90;47.70
62809;DHT22;48848;39.002;-94.584;2022-08-11T17:14:47;24.90;47.70
62809;DHT22;48848;39.002;-94.584;2022-08-11T17:17:31;24.90;47.70
62809;DHT22;48848;39.002;-94.584;2022-08-11T17:20:03;24.90;47.70
62809;DHT22;48848;39.002;-94.584;2022-08-11T17:22:33;24.90;47.60
62809;DHT22;48848;39.002;-94.584;2022-08-11T17:25:19;24.90;47.60
62809;DHT22;48848;39.002;-94.584;2022-08-11T17:27:48;24.90;47.60
62809;DHT22;48848;39.002;-94.584;2022-08-11T17:30:15;25.00;47.70
62809;DHT22;48848;39.002;-94.584;2022-08-11T17:32:48;25.00;47.60
62809;DHT22;48848;39.002;-94.584;2022-08-11T17:35:39;25.10;47.80
62809;DHT22;48848;39.002;-94.584;2022-08-11T17:38:16;25.10;47.90
62809;DHT22;48848;39.002;-94.584;2022-08-11T17:40:48;25.10;47.80
62809;DHT22;48848;39.002;-94.584;2022-08-11T17:43:36;25.20;47.60
62809;DHT22;48848;39.002;-94.584;2022-08-11T17:46:20;25.20;47.50
62809;DHT22;48848;39.002;-94.584;2022-08-11T17:49:08;25.30;47.60
62809;DHT22;48848;39.002;-94.584;2022-08-11T17:51:36;25.20;47.40
62809;DHT22;48848;39.002;-94.584;2022-08-11T17:54:22;25.20;47.50
62809;DHT22;48848;39.002;-94.584;2022-08-11T17:57:08;25.20;47.80
62809;DHT22;48848;39.002;-94.584;2022-08-11T17:59:54;25.30;48.20
62809;DHT22;48848;39.002;-94.584;2022-08-11T18:02:25;25.30;47.70
62809;DHT22;48848;39.002;-94.584;2022-08-11T18:05:12;25.30;47.70
62809;DHT22;48848;39.002;-94.584;2022-08-11T18:07:42;25.30;47.80
62809;DHT22;48848;39.002;-94.584;2022-08-11T18:10:29;25.30;47.90
62809;DHT22;48848;39.002;-94.584;2022-08-11T18:13:19;25.40;48.40
62809;DHT22;48848;39.002;-94.584;2022-08-11T18:16:04;25.40;48.00
62809;DHT22;48848;39.002;-94.584;2022-08-11T18:18:50;25.40;47.70
62809;DHT22;48848;39.002;-94.584;2022-08-11T18:21:35;25.50;47.70
62809;DHT22;48848;39.002;-94.584;2022-08-11T18:24:23;25.40;45.50
62809;DHT22;48848;39.002;-94.584;2022-08-11T18:27:10;25.20;44.90
62809;DHT22;48848;39.002;-94.584;2022-08-11T18:29:59;25.00;44.40
62809;DHT22;48848;39.002;-94.584;2022-08-11T18:32:47;24.90;44.30
62809;DHT22;48848;39.002;-94.584;2022-08-11T18:35:34;24.70;44.00
62809;DHT22;48848;39.002;-94.584;2022-08-11T18:38:22;24.60;43.70
62809;DHT22;48848;39.002;-94.584;2022-08-11T18:41:10;24.50;43.80
62809;DHT22;48848;39.002;-94.584;2022-08-11T18:43:58;24.40;43.70
62809;DHT22;48848;39.002;-94.584;2022-08-11T18:46:44;24.30;43.30
62809;DHT22;48848;39.002;-94.584;2022-08-11T18:49:34;24.30;43.00
62809;DHT22;48848;39.002;-94.584;2022-08-11T18:52:19;24.20;43.30
62809;DHT22;48848;39.002;-94.584;2022-08-11T18:55:08;24.20;43.10
62809;DHT22;48848;39.002;-94.584;2022-08-11T18:57:55;24.10;43.10
62809;DHT22;48848;39.002;-94.584;2022-08-11T19:00:41;24.10;43.20
62809;DHT22;48848;39.002;-94.584;2022-08-11T19:03:27;24.00;42.80
62809;DHT22;48848;39.002;-94.584;2022-08-11T19:06:13;24.00;42.90
62809;DHT22;48848;39.002;-94.584;2022-08-11T19:09:01;23.90;42.60
62809;DHT22;48848;39.002;-94.584;2022-08-11T19:11:47;24.00;44.50
62809;DHT22;48848;39.002;-94.584;2022-08-11T19:14:34;23.90;42.50
62809;DHT22;48848;39.002;-94.584;2022-08-11T19:17:21;23.90;42.60
62809;DHT22;48848;39.002;-94.584;2022-08-11T19:20:12;23.80;42.50
62809;DHT22;48848;39.002;-94.584;2022-08-11T19:22:57;23.80;42.70
62809;DHT22;48848;39.002;-94.584;2022-08-11T19:25:44;23.80;42.50
62809;DHT22;48848;39.002;-94.584;2022-08-11T19:28:29;23.70;42.40
62809;DHT22;48848;39.002;-94.584;2022-08-11T19:31:15;23.70;44.40
62809;DHT22;48848;39.002;-94.584;2022-08-11T19:34:01;24.00;42.50
62809;DHT22;48848;39.002;-94.584;2022-08-11T19:36:46;23.80;42.10
62809;DHT22;48848;39.002;-94.584;2022-08-11T19:39:32;23.80;42.10